Time;durP1;ratioP1;P1;durP2;ratioP2;P2;SDS_P1;SDS_P2;PMS_P1;PMS_P2;Temp;Humidity;BMP_temperature;BMP_pressure;BME280_temperature;BME280_humidity;BME280_pressure;Samples;Min_cycle;Max_cycle;Signal;HPM_P1;HPM_P2
2022/04/06 00:00:21;;;;;;;3.72;1.50;;;17.20;60.70;;;;;;10373913;28;20037;-57
2022/04/06 00:05:22;;;;;;;3.20;2.08;;;17.20;60.50;;;;;;10375974;28;20087;-59
2022/04/06 00:10:22;;;;;;;3.72;1.90;;;17.20;60.50;;;;;;10388331;28;20106;-59
2022/04/06 00:15:23;;;;;;;2.33;1.40;;;17.10;60.60;;;;;;10385297;28;20034;-59
2022/04/06 00:20:24;;;;;;;2.15;1.52;;;17.20;60.50;;;;;;10385524;28;20071;-58
2022/04/06 00:25:25;;;;;;;1.85;1.08;;;17.20;60.30;;;;;;10414794;28;20026;-58
2022/04/06 00:30:26;;;;;;;2.25;1.48;;;17.20;60.40;;;;;;10413512;28;20034;-58
2022/04/06 00:35:29;;;;;;;3.13;1.50;;;17.10;60.60;;;;;;10395109;28;20034;-59
2022/04/06 00:40:35;;;;;;;2.17;1.50;;;17.20;60.30;;;;;;10390154;28;20037;-59
2022/04/06 00:45:38;;;;;;;2.15;1.33;;;17.20;60.20;;;;;;10368599;28;20034;-58
2022/04/06 00:50:41;;;;;;;3.08;1.88;;;17.20;60.40;;;;;;10392915;28;20556;-58
2022/04/06 00:55:42;;;;;;;2.80;1.40;;;17.10;60.30;;;;;;10385756;28;20566;-58
2022/04/06 01:00:43;;;;;;;2.33;1.65;;;17.20;60.10;;;;;;10395326;28;20073;-58
2022/04/06 01:05:43;;;;;;;2.58;1.27;;;17.20;60.20;;;;;;10373837;28;20120;-58
2022/04/06 01:10:45;;;;;;;3.50;1.45;;;17.10;60.30;;;;;;10394365;28;20069;-58
2022/04/06 01:15:46;;;;;;;3.95;1.70;;;17.20;60.20;;;;;;10376289;28;20033;-59
2022/04/06 01:20:46;;;;;;;2.35;1.73;;;17.20;60.00;;;;;;10373851;28;20033;-59
2022/04/06 01:25:49;;;;;;;2.70;1.48;;;17.10;60.20;;;;;;10376198;28;20033;-59
2022/04/06 01:30:50;;;;;;;2.85;1.50;;;17.10;60.20;;;;;;10401589;28;20032;-59
2022/04/06 01:35:51;;;;;;;2.20;1.33;;;17.20;59.90;;;;;;10389442;28;20513;-59
2022/04/06 01:40:53;;;;;;;2.80;1.30;;;17.20;59.90;;;;;;10413318;28;20063;-59
2022/04/06 01:45:54;;;;;;;2.42;1.33;;;17.10;60.00;;;;;;10382479;28;20084;-59
2022/04/06 01:56:14;;;;;;;2.85;1.30;;;17.20;59.80;;;;;;10371100;28;20042;-59
2022/04/06 02:01:15;;;;;;;1.95;1.13;;;17.20;59.90;;;;;;10372097;28;20030;-58
2022/04/06 02:06:15;;;;;;;3.15;1.40;;;17.20;60.00;;;;;;10372126;28;20120;-58
2022/04/06 02:11:16;;;;;;;2.13;1.50;;;17.20;59.80;;;;;;10394999;28;20543;-58
2022/04/06 02:16:17;;;;;;;2.58;1.65;;;17.20;59.80;;;;;;10391949;28;20121;-58
2022/04/06 02:21:17;;;;;;;4.18;1.75;;;17.10;59.90;;;;;;10375234;28;20026;-59
2022/04/06 02:26:18;;;;;;;1.15;0.85;;;17.20;59.80;;;;;;10382293;28;20072;-59
2022/04/06 02:31:19;;;;;;;1.73;1.10;;;17.30;59.60;;;;;;10367501;28;20144;-58
2022/04/06 02:36:19;;;;;;;2.25;1.33;;;17.20;59.70;;;;;;10389382;28;20030;-58
2022/04/06 02:41:20;;;;;;;2.50;1.20;;;17.20;59.90;;;;;;10390585;28;20433;-59
2022/04/06 02:46:21;;;;;;;2.90;1.42;;;17.20;59.60;;;;;;10398359;28;20092;-59
2022/04/06 02:51:21;;;;;;;1.80;1.10;;;17.20;59.60;;;;;;10407306;28;20037;-59
2022/04/06 02:56:22;;;;;;;1.30;0.90;;;17.10;59.70;;;;;;10383683;28;20153;-59
2022/04/06 03:01:23;;;;;;;2.20;1.20;;;17.20;59.80;;;;;;10399534;28;20120;-58
2022/04/06 03:06:24;;;;;;;1.55;1.10;;;17.20;59.50;;;;;;10393566;28;20022;-59
2022/04/06 03:11:25;;;;;;;2.55;1.27;;;17.20;59.70;;;;;;10344198;28;20081;-58
2022/04/06 03:16:25;;;;;;;2.08;1.23;;;17.10;59.80;;;;;;10374035;28;20029;-59
2022/04/06 03:21:26;;;;;;;1.95;1.08;;;17.20;59.50;;;;;;10416338;28;20401;-58
2022/04/06 03:26:27;;;;;;;1.52;1.00;;;17.20;59.40;;;;;;10390861;28;20044;-59
2022/04/06 03:31:27;;;;;;;2.67;1.40;;;17.20;59.60;;;;;;10389799;28;20036;-58
2022/04/06 03:36:28;;;;;;;2.08;1.38;;;17.20;59.50;;;;;;10396549;28;20089;-59
2022/04/06 03:41:29;;;;;;;3.08;1.40;;;17.30;59.30;;;;;;10377152;28;20117;-59
2022/04/06 03:46:30;;;;;;;2.70;1.30;;;17.20;59.30;;;;;;10376678;28;20028;-59
2022/04/06 03:51:31;;;;;;;2.13;1.20;;;17.20;59.60;;;;;;10372377;28;20069;-59
2022/04/06 03:56:32;;;;;;;2.35;1.20;;;17.20;59.40;;;;;;10354811;28;20121;-59
2022/04/06 04:01:35;;;;;;;2.38;1.38;;;17.20;59.20;;;;;;10372211;28;20022;-59
2022/04/06 04:06:36;;;;;;;1.45;1.10;;;17.20;59.40;;;;;;10376032;28;20057;-59
2022/04/06 04:11:37;;;;;;;1.92;1.10;;;17.20;59.50;;;;;;10395130;28;20038;-59
2022/04/06 04:16:39;;;;;;;1.55;1.05;;;17.20;59.20;;;;;;10384605;28;20096;-59
2022/04/06 04:21:39;;;;;;;2.38;1.00;;;17.20;59.30;;;;;;10405357;28;20060;-59
2022/04/06 04:26:40;;;;;;;1.75;0.90;;;17.20;59.40;;;;;;10385234;28;20033;-58
2022/04/06 04:31:41;;;;;;;2.85;1.30;;;17.20;59.30;;;;;;10375342;28;20113;-58
2022/04/06 04:36:42;;;;;;;2.58;1.00;;;17.20;59.10;;;;;;10383561;28;20030;-58
2022/04/06 04:41:43;;;;;;;3.05;1.13;;;17.20;59.20;;;;;;10413047;28;20425;-59
2022/04/06 04:46:43;;;;;;;1.65;0.90;;;17.20;59.40;;;;;;10369809;28;20172;-59
2022/04/06 04:51:44;;;;;;;3.58;1.60;;;17.20;59.20;;;;;;10379424;28;20034;-59
2022/04/06 04:56:45;;;;;;;3.33;1.20;;;17.20;59.20;;;;;;10375875;28;20470;-58
2022/04/06 05:01:45;;;;;;;3.78;1.33;;;17.30;59.30;;;;;;10374094;28;20068;-57
2022/04/06 05:06:46;;;;;;;7.97;2.42;;;17.40;59.30;;;;;;10373667;28;20072;-59
2022/04/06 05:11:47;;;;;;;4.60;1.30;;;17.30;60.80;;;;;;10386016;28;20045;-57
2022/04/06 05:16:47;;;;;;;7.07;1.40;;;17.40;60.80;;;;;;10366454;28;20125;-58
2022/04/06 05:21:48;;;;;;;8.85;1.50;;;17.40;61.80;;;;;;10383770;28;20065;-55
2022/04/06 05:26:49;;;;;;;11.88;2.20;;;17.40;62.40;;;;;;10407208;28;20153;-57
2022/04/06 05:31:50;;;;;;;6.28;2.03;;;17.30;62.10;;;;;;10389486;28;20037;-57
2022/04/06 05:36:50;;;;;;;9.20;2.00;;;17.20;62.70;;;;;;10388842;28;20040;-59
2022/04/06 05:41:51;;;;;;;4.90;1.90;;;17.20;62.40;;;;;;10388123;28;20033;-59
2022/04/06 05:46:52;;;;;;;13.38;2.63;;;17.20;62.70;;;;;;10379587;28;20133;-59
2022/04/06 05:51:52;;;;;;;10.27;2.03;;;17.20;62.70;;;;;;10369725;28;20042;-62
2022/04/06 05:56:53;;;;;;;18.80;2.63;;;17.20;62.50;;;;;;10390363;28;20525;-62
2022/04/06 06:01:54;;;;;;;12.98;2.03;;;17.00;62.60;;;;;;10372990;28;20100;-62
2022/04/06 06:06:55;;;;;;;11.60;2.40;;;17.00;62.60;;;;;;10368218;28;20057;-57
2022/04/06 06:11:55;;;;;;;16.08;2.72;;;17.00;63.00;;;;;;10372316;28;20046;-55
2022/04/06 06:16:58;;;;;;;13.38;3.03;;;17.00;63.20;;;;;;10372121;28;20018;-54
2022/04/06 06:21:59;;;;;;;8.70;2.30;;;16.90;63.00;;;;;;10408653;28;20065;-53
2022/04/06 06:26:59;;;;;;;10.70;2.22;;;16.90;62.80;;;;;;10395321;28;20057;-53
2022/04/06 06:32:00;;;;;;;8.80;2.38;;;16.80;62.90;;;;;;10369702;28;20117;-54
2022/04/06 06:37:01;;;;;;;11.98;2.35;;;16.80;62.80;;;;;;10400433;28;20027;-53
2022/04/06 06:42:03;;;;;;;9.45;3.33;;;16.80;62.60;;;;;;10411042;28;20032;-53
2022/04/06 06:47:04;;;;;;;9.88;2.03;;;16.70;62.60;;;;;;10383311;28;20030;-53
2022/04/06 06:52:05;;;;;;;8.38;2.00;;;16.80;62.50;;;;;;10393743;28;20077;-54
2022/04/06 06:57:06;;;;;;;10.50;1.77;;;16.90;62.00;;;;;;10385116;28;20033;-53
2022/04/06 07:02:07;;;;;;;9.57;2.10;;;17.00;62.40;;;;;;10376068;28;20509;-53
2022/04/06 07:07:07;;;;;;;11.70;2.10;;;17.00;61.70;;;;;;10376449;28;20120;-53
2022/04/06 07:12:10;;;;;;;6.15;2.17;;;17.10;61.10;;;;;;10376961;28;20049;-53
2022/04/06 07:17:11;;;;;;;5.90;2.42;;;17.20;61.00;;;;;;10378726;28;20112;-54
2022/04/06 07:22:12;;;;;;;8.73;1.77;;;17.10;60.90;;;;;;10377654;28;20434;-54
2022/04/06 07:27:13;;;;;;;7.78;1.65;;;17.10;61.00;;;;;;10377811;28;20092;-54
2022/04/06 07:32:13;;;;;;;4.95;1.80;;;17.00;61.10;;;;;;10399102;28;20092;-54
2022/04/06 07:37:14;;;;;;;4.10;1.40;;;17.00;61.20;;;;;;10382376;28;20049;-53
2022/04/06 07:42:15;;;;;;;6.28;1.80;;;16.90;61.40;;;;;;10377108;28;20510;-54
2022/04/06 07:47:15;;;;;;;8.48;1.80;;;16.90;61.40;;;;;;10382183;28;20057;-54
2022/04/06 07:52:16;;;;;;;6.43;1.88;;;16.90;61.10;;;;;;10397361;28;20068;-55
2022/04/06 07:57:20;;;;;;;5.93;1.67;;;17.10;60.70;;;;;;10372325;28;20054;-54
2022/04/06 08:02:21;;;;;;;4.00;1.70;;;17.10;60.60;;;;;;10378924;28;20033;-55
2022/04/06 08:07:21;;;;;;;6.18;1.42;;;17.00;60.70;;;;;;10360092;28;20036;-54
2022/04/06 08:12:22;;;;;;;4.00;1.85;;;17.00;60.80;;;;;;10414930;28;20076;-54
2022/04/06 08:17:23;;;;;;;4.00;1.10;;;16.90;60.90;;;;;;10405819;28;20076;-54
2022/04/06 08:22:27;;;;;;;6.00;1.85;;;16.90;61.00;;;;;;10391526;28;20030;-54
2022/04/06 08:27:28;;;;;;;5.40;1.52;;;17.00;60.50;;;;;;10416040;28;20045;-54
2022/04/06 08:32:28;;;;;;;5.28;1.17;;;17.00;60.50;;;;;;10400785;28;20038;-54
2022/04/06 08:37:38;;;;;;;2.97;1.48;;;17.00;60.40;;;;;;10374176;28;20117;-53
2022/04/06 08:42:43;;;;;;;3.78;1.25;;;17.00;60.40;;;;;;10371493;28;20047;-53
2022/04/06 08:47:48;;;;;;;5.57;1.40;;;17.00;60.50;;;;;;10374891;28;20034;-54
2022/04/06 08:52:48;;;;;;;6.68;1.65;;;16.90;60.50;;;;;;10388808;28;20041;-54
2022/04/06 08:57:50;;;;;;;3.65;1.15;;;16.90;60.40;;;;;;10369750;28;20088;-53
2022/04/06 09:02:51;;;;;;;3.40;1.27;;;17.10;60.00;;;;;;10402634;28;20191;-54
2022/04/06 09:07:52;;;;;;;3.55;1.00;;;17.20;59.80;;;;;;10414158;28;20155;-53
2022/04/06 09:13:07;;;;;;;2.70;1.25;;;17.10;59.80;;;;;;10413496;28;20042;-54
2022/04/06 09:18:08;;;;;;;3.00;1.35;;;17.10;60.00;;;;;;10390973;28;20037;-52
2022/04/06 09:23:09;;;;;;;4.50;1.20;;;17.00;60.20;;;;;;10412620;28;20072;-54
2022/04/06 09:28:14;;;;;;;2.97;0.70;;;17.10;60.00;;;;;;10413356;28;20029;-52
2022/04/06 09:33:21;;;;;;;3.38;1.48;;;17.10;59.80;;;;;;10381743;28;20044;-53
2022/04/06 09:38:29;;;;;;;3.58;0.90;;;17.10;59.90;;;;;;10402040;28;20028;-54
2022/04/06 09:43:33;;;;;;;3.15;1.00;;;17.00;60.10;;;;;;10378230;28;20033;-54
2022/04/06 09:48:52;;;;;;;2.55;1.02;;;17.00;60.10;;;;;;10389577;28;20042;-52
2022/04/06 09:53:54;;;;;;;5.47;1.37;;;17.10;59.80;;;;;;10390999;28;20481;-53
2022/04/06 09:58:57;;;;;;;5.95;1.52;;;17.10;60.10;;;;;;10370927;28;20033;-52
2022/04/06 10:04:07;;;;;;;5.68;1.40;;;17.20;60.20;;;;;;10396884;28;20038;-50
2022/04/06 10:09:11;;;;;;;3.38;1.50;;;17.10;60.40;;;;;;10388805;28;20045;-52
2022/04/06 10:14:12;;;;;;;4.25;1.40;;;17.10;60.40;;;;;;10377412;28;20038;-53
2022/04/06 10:19:16;;;;;;;5.22;1.10;;;17.10;60.50;;;;;;10381704;28;20108;-53
2022/04/06 10:24:54;;;;;;;5.15;1.48;;;17.10;60.60;;;;;;10389855;28;20022;-53
2022/04/06 10:30:20;;;;;;;5.38;1.30;;;17.10;60.80;;;;;;10396189;28;20099;-52
2022/04/06 10:35:31;;;;;;;6.38;1.00;;;17.00;61.00;;;;;;10411065;28;20029;-53
2022/04/06 10:40:47;;;;;;;2.42;1.00;;;16.90;61.20;;;;;;10397093;28;20045;-53
2022/04/06 10:45:47;;;;;;;2.70;0.88;;;16.90;61.30;;;;;;10395567;28;20088;-53
2022/04/06 10:50:49;;;;;;;2.88;0.98;;;17.00;60.90;;;;;;10382180;28;20125;-54
2022/04/06 10:56:03;;;;;;;3.28;1.00;;;17.10;60.70;;;;;;10377275;28;20485;-53
2022/04/06 11:01:17;;;;;;;6.97;1.38;;;17.30;61.00;;;;;;10359714;28;20132;-53
2022/04/06 11:06:40;;;;;;;4.03;1.23;;;17.30;61.60;;;;;;10386312;28;20030;-49
2022/04/06 11:11:46;;;;;;;3.00;1.30;;;17.40;61.30;;;;;;10377907;28;20049;-47
2022/04/06 11:16:48;;;;;;;2.75;1.10;;;17.60;60.70;;;;;;10379063;28;20038;-50
2022/04/06 11:21:55;;;;;;;3.95;1.20;;;17.50;60.90;;;;;;10407789;28;20390;-52
2022/04/06 11:26:56;;;;;;;3.58;1.20;;;17.40;61.10;;;;;;10418779;28;20037;-55
2022/04/06 11:31:59;;;;;;;5.00;2.67;;;17.30;61.30;;;;;;10417486;28;20030;-54
2022/04/06 11:37:02;;;;;;;1.90;1.05;;;17.10;61.60;;;;;;10390626;28;20133;-51
2022/04/06 11:42:06;;;;;;;6.57;1.63;;;17.00;61.70;;;;;;10372893;28;20124;-55
2022/04/06 11:47:07;;;;;;;3.40;1.20;;;16.90;62.00;;;;;;10403233;28;20052;-54
2022/04/06 11:52:08;;;;;;;3.03;1.35;;;16.90;61.90;;;;;;10392326;28;20041;-55
2022/04/06 11:57:09;;;;;;;4.70;1.33;;;16.80;61.80;;;;;;10417370;28;20079;-55
2022/04/06 12:02:10;;;;;;;3.25;1.08;;;17.00;61.40;;;;;;10383081;28;20049;-55
2022/04/06 12:07:20;;;;;;;2.97;1.33;;;17.00;61.20;;;;;;10397718;28;20064;-53
2022/04/06 12:12:23;;;;;;;2.45;1.15;;;17.00;61.20;;;;;;10385992;28;20062;-55
2022/04/06 12:17:24;;;;;;;2.45;1.00;;;17.00;61.20;;;;;;10399754;28;20030;-55
2022/04/06 12:22:26;;;;;;;3.08;1.35;;;16.90;61.40;;;;;;10375851;28;20366;-48
2022/04/06 12:27:29;;;;;;;5.65;1.38;;;16.90;61.30;;;;;;10386086;28;20083;-52
2022/04/06 12:32:44;;;;;;;5.65;1.35;;;17.00;61.60;;;;;;10378904;28;20033;-52
2022/04/06 12:37:46;;;;;;;8.95;1.60;;;17.00;62.60;;;;;;10395686;28;20030;-52
2022/04/06 12:42:47;;;;;;;10.38;2.53;;;17.00;63.00;;;;;;10372711;28;20049;-53
2022/04/06 12:47:48;;;;;;;13.98;2.35;;;17.00;62.90;;;;;;10391460;28;20060;-53
2022/04/06 12:53:08;;;;;;;13.18;2.67;;;17.00;63.40;;;;;;10405923;28;20069;-55
2022/04/06 12:58:18;;;;;;;7.75;2.47;;;17.00;63.10;;;;;;10414557;28;20063;-53
2022/04/06 13:03:18;;;;;;;;;;;16.90;62.70;;;;;;10395107;28;20056;-53
2022/04/06 13:08:22;;;;;;;39.13;5.75;;;16.90;63.00;;;;;;10414612;28;19924;-52
2022/04/06 13:13:23;;;;;;;38.33;5.57;;;16.90;63.50;;;;;;10391707;28;20045;-54
2022/04/06 13:18:23;;;;;;;27.35;5.63;;;16.90;64.10;;;;;;10389494;28;20062;-55
2022/04/06 13:23:24;;;;;;;24.38;5.28;;;17.10;64.30;;;;;;10390685;28;20034;-55
2022/04/06 13:28:25;;;;;;;47.38;8.93;;;17.00;64.30;;;;;;10412547;28;20154;-55
2022/04/06 13:33:26;;;;;;;32.67;5.78;;;16.90;64.80;;;;;;10388099;28;20493;-56
2022/04/06 13:38:28;;;;;;;25.70;5.07;;;17.00;64.80;;;;;;10367811;28;20046;-53
2022/04/06 13:43:29;;;;;;;28.80;6.28;;;17.00;64.70;;;;;;10391380;28;20029;-55
2022/04/06 13:48:29;;;;;;;27.65;5.00;;;17.00;64.80;;;;;;10386114;28;20508;-54
2022/04/06 13:53:30;;;;;;;23.67;5.07;;;16.90;64.50;;;;;;10387770;28;20465;-54
2022/04/06 13:58:31;;;;;;;19.77;4.95;;;16.90;64.60;;;;;;10384559;28;20041;-53
2022/04/06 14:03:33;;;;;;;21.50;4.75;;;16.80;64.60;;;;;;10387702;28;20085;-54
2022/04/06 14:08:34;;;;;;;29.02;8.40;;;16.70;64.60;;;;;;10384157;28;20082;-54
2022/04/06 14:13:35;;;;;;;25.77;6.85;;;16.70;64.70;;;;;;10387136;28;20040;-53
2022/04/06 14:18:36;;;;;;;34.08;6.30;;;16.80;64.40;;;;;;10386351;28;20029;-55
2022/04/06 14:23:38;;;;;;;27.88;5.63;;;16.90;64.70;;;;;;10364989;28;20356;-55
2022/04/06 14:28:39;;;;;;;30.27;5.32;;;17.00;64.80;;;;;;10371901;28;20041;-53
2022/04/06 14:33:40;;;;;;;40.65;6.78;;;16.90;64.90;;;;;;10388944;28;20056;-49
2022/04/06 14:38:41;;;;;;;36.15;5.97;;;17.10;65.20;;;;;;10387490;28;20076;-52
2022/04/06 14:43:42;;;;;;;31.05;6.53;;;17.00;65.10;;;;;;10389064;28;20068;-52
2022/04/06 14:48:43;;;;;;;18.60;4.75;;;16.90;64.80;;;;;;10379455;28;20426;-51
2022/04/06 14:53:44;;;;;;;29.50;5.75;;;16.90;64.50;;;;;;10369817;28;20048;-53
2022/04/06 14:58:44;;;;;;;30.50;5.93;;;16.90;64.30;;;;;;10374420;28;20478;-51
2022/04/06 15:03:45;;;;;;;20.67;5.20;;;16.90;64.20;;;;;;10376028;28;20065;-52
2022/04/06 15:08:46;;;;;;;20.80;5.18;;;16.80;64.20;;;;;;10377508;28;20120;-52
2022/04/06 15:13:46;;;;;;;18.48;4.32;;;16.90;63.80;;;;;;10377578;28;20040;-51
2022/04/06 15:18:47;;;;;;;14.32;3.83;;;16.90;63.70;;;;;;10383157;28;20053;-49
2022/04/06 15:23:48;;;;;;;16.63;4.05;;;16.90;63.50;;;;;;10377966;28;20073;-51
2022/04/06 15:28:50;;;;;;;17.80;3.58;;;16.90;63.40;;;;;;10403597;28;20034;-51
2022/04/06 15:33:50;;;;;;;13.25;3.47;;;16.90;63.40;;;;;;10384447;28;20050;-52
2022/04/06 15:38:52;;;;;;;15.23;3.22;;;17.00;63.00;;;;;;10387300;28;20060;-49
2022/04/06 15:43:52;;;;;;;7.25;2.45;;;17.10;62.60;;;;;;10373872;28;20033;-52
2022/04/06 15:48:53;;;;;;;8.18;2.75;;;17.10;62.40;;;;;;10373531;28;20034;-53
2022/04/06 15:53:55;;;;;;;11.32;3.33;;;17.10;62.50;;;;;;10417736;28;20510;-53
2022/04/06 15:58:56;;;;;;;9.18;2.58;;;17.10;62.50;;;;;;10379110;28;20109;-53
2022/04/06 16:03:56;;;;;;;7.93;2.25;;;17.20;62.00;;;;;;10376633;28;20125;-50
2022/04/06 16:08:57;;;;;;;14.32;3.65;;;17.20;61.80;;;;;;10375332;28;20049;-52
2022/04/06 16:13:57;;;;;;;8.95;2.65;;;17.20;62.00;;;;;;10379584;28;20132;-53
2022/04/06 16:19:01;;;;;;;9.07;3.08;;;17.10;62.10;;;;;;10375025;28;20072;-53
2022/04/06 16:24:02;;;;;;;16.00;3.15;;;17.00;63.10;;;;;;10375469;28;20621;-53
2022/04/06 16:29:04;;;;;;;9.77;2.15;;;17.20;65.00;;;;;;10375178;28;20030;-50
2022/04/06 16:34:05;;;;;;;14.48;4.90;;;17.30;65.40;;;;;;10378328;28;20021;-48
2022/04/06 16:39:08;;;;;;;9.85;2.50;;;17.40;65.50;;;;;;10415892;28;20035;-51
2022/04/06 16:44:09;;;;;;;9.25;2.72;;;17.30;66.00;;;;;;10371641;28;20033;-53
2022/04/06 16:49:10;;;;;;;9.23;2.70;;;17.30;65.90;;;;;;10410045;28;20477;-48
2022/04/06 16:54:12;;;;;;;13.13;3.55;;;17.20;66.50;;;;;;10388957;28;20037;-53
2022/04/06 16:59:13;;;;;;;13.52;3.00;;;17.10;65.70;;;;;;10391780;28;20037;-55
2022/04/06 17:04:14;;;;;;;9.50;2.30;;;17.00;65.80;;;;;;10394321;28;20033;-55
2022/04/06 17:09:17;;;;;;;14.45;2.55;;;16.90;65.80;;;;;;10394260;28;20025;-55
2022/04/06 17:14:20;;;;;;;11.00;2.20;;;16.90;65.60;;;;;;10388856;28;20431;-54
2022/04/06 17:19:20;;;;;;;7.72;1.98;;;16.90;65.60;;;;;;10396048;28;20565;-54
2022/04/06 17:24:21;;;;;;;8.02;1.95;;;16.90;65.60;;;;;;10376111;28;20121;-55
2022/04/06 17:29:24;;;;;;;11.85;3.53;;;16.90;65.60;;;;;;10390691;28;20501;-54
2022/04/06 17:34:25;;;;;;;8.13;2.90;;;16.90;65.70;;;;;;10382973;28;20013;-55
2022/04/06 17:39:26;;;;;;;11.23;3.78;;;16.80;65.60;;;;;;10397526;28;20396;-54
2022/04/06 17:44:26;;;;;;;9.35;2.85;;;16.90;66.20;;;;;;10385705;28;20058;-53
2022/04/06 17:49:27;;;;;;;7.35;2.22;;;17.10;65.80;;;;;;10378814;28;20046;-54
2022/04/06 17:54:28;;;;;;;7.93;2.75;;;17.20;65.20;;;;;;10406527;28;20537;-55
2022/04/06 17:59:28;;;;;;;7.15;2.38;;;17.10;65.80;;;;;;10382462;28;20517;-53
2022/04/06 18:04:29;;;;;;;6.43;2.08;;;17.10;65.50;;;;;;10377235;28;20109;-56
2022/04/06 18:09:30;;;;;;;6.47;2.20;;;17.20;65.30;;;;;;10383981;28;20378;-55
2022/04/06 18:14:31;;;;;;;9.50;2.47;;;17.00;65.40;;;;;;10397221;28;20029;-54
2022/04/06 18:19:31;;;;;;;9.93;1.90;;;16.90;65.60;;;;;;10374492;28;20041;-55
2022/04/06 18:24:32;;;;;;;7.30;2.85;;;16.90;65.60;;;;;;10394513;28;20041;-55
2022/04/06 18:29:33;;;;;;;6.75;2.33;;;16.90;65.40;;;;;;10387230;28;20435;-56
2022/04/06 18:34:34;;;;;;;5.20;2.05;;;16.80;65.10;;;;;;10392161;28;20033;-56
2022/04/06 18:39:36;;;;;;;7.95;3.15;;;16.80;65.10;;;;;;10395649;28;20053;-55
2022/04/06 18:44:38;;;;;;;5.13;1.98;;;16.80;64.90;;;;;;10397150;28;20048;-55
2022/04/06 18:49:39;;;;;;;7.63;2.22;;;16.90;64.50;;;;;;10396380;28;20458;-55
2022/04/06 18:54:40;;;;;;;5.93;1.75;;;17.10;64.10;;;;;;10371816;28;20479;-55
2022/04/06 18:59:40;;;;;;;5.88;1.80;;;17.20;63.60;;;;;;10379208;28;20096;-55
2022/04/06 19:04:41;;;;;;;7.20;1.63;;;17.10;63.50;;;;;;10357745;28;20080;-55
2022/04/06 19:09:42;;;;;;;3.35;1.42;;;17.10;63.60;;;;;;10375769;28;20144;-55
2022/04/06 19:14:45;;;;;;;2.97;1.15;;;17.10;63.40;;;;;;10414029;28;20112;-55
2022/04/06 19:19:45;;;;;;;6.38;1.88;;;17.20;63.20;;;;;;10386830;28;20029;-56
2022/04/06 19:24:48;;;;;;;4.90;1.30;;;17.20;63.20;;;;;;10380827;28;20037;-56
2022/04/06 19:29:49;;;;;;;3.10;1.10;;;17.10;63.30;;;;;;10373007;28;20080;-55
2022/04/06 19:34:50;;;;;;;2.63;1.40;;;17.10;63.10;;;;;;10380669;28;20026;-55
2022/04/06 19:39:51;;;;;;;5.22;2.00;;;17.10;63.00;;;;;;10377598;28;20034;-54
2022/04/06 19:44:51;;;;;;;5.32;1.52;;;17.20;62.70;;;;;;10377214;28;20065;-56
2022/04/06 19:49:52;;;;;;;3.03;1.45;;;17.20;62.50;;;;;;10376841;28;20448;-55
2022/04/06 19:54:53;;;;;;;2.53;1.40;;;17.20;62.70;;;;;;10377147;28;20540;-55
2022/04/06 19:59:54;;;;;;;2.45;1.30;;;17.10;62.70;;;;;;10376785;28;20029;-54
2022/04/06 20:04:55;;;;;;;5.13;1.30;;;17.10;62.90;;;;;;10376159;28;20030;-55
2022/04/06 20:09:56;;;;;;;3.97;1.10;;;17.00;63.00;;;;;;10379903;28;20073;-56
2022/04/06 20:14:57;;;;;;;4.63;1.17;;;17.00;63.00;;;;;;10376293;28;20121;-54
2022/04/06 20:19:58;;;;;;;6.53;1.63;;;17.20;62.50;;;;;;10376264;28;20108;-55
2022/04/06 20:24:58;;;;;;;3.75;1.38;;;17.20;62.30;;;;;;10375454;28;20033;-56
2022/04/06 20:29:59;;;;;;;2.53;1.00;;;17.20;62.20;;;;;;10405072;28;20405;-55
2022/04/06 20:35:00;;;;;;;3.30;1.00;;;17.20;62.20;;;;;;10404660;28;20068;-56
2022/04/06 20:40:01;;;;;;;2.42;1.00;;;17.20;62.30;;;;;;10375258;28;20037;-55
2022/04/06 20:45:03;;;;;;;2.63;1.17;;;17.10;62.40;;;;;;10370370;28;20080;-55
2022/04/06 20:50:05;;;;;;;1.80;0.95;;;17.00;62.60;;;;;;10404485;28;20049;-55
2022/04/06 20:55:07;;;;;;;2.30;1.10;;;17.00;62.60;;;;;;10387739;28;20120;-56
2022/04/06 21:00:09;;;;;;;1.73;0.75;;;17.20;62.80;;;;;;10406970;28;20492;-55
2022/04/06 21:05:12;;;;;;;1.23;0.80;;;17.20;61.90;;;;;;10409996;28;20033;-55
2022/04/06 21:10:13;;;;;;;2.03;1.10;;;17.20;62.50;;;;;;10373652;28;20081;-54
2022/04/06 21:15:14;;;;;;;2.65;1.15;;;17.20;61.80;;;;;;10373799;28;20029;-54
2022/04/06 21:20:18;;;;;;;2.08;0.85;;;17.20;61.80;;;;;;10377489;28;20036;-55
2022/04/06 21:25:19;;;;;;;2.15;1.33;;;17.10;62.00;;;;;;10414463;28;20033;-55
2022/04/06 21:30:20;;;;;;;2.00;0.90;;;17.10;62.10;;;;;;10377065;28;20042;-55
2022/04/06 21:35:21;;;;;;;2.17;1.10;;;17.20;61.80;;;;;;10371339;28;20386;-56
2022/04/06 21:40:21;;;;;;;3.13;0.80;;;17.20;61.70;;;;;;10409730;28;20168;-55
2022/04/06 21:45:22;;;;;;;1.90;0.70;;;17.20;61.60;;;;;;10413524;28;20029;-53
2022/04/06 21:50:23;;;;;;;2.45;0.85;;;17.20;61.50;;;;;;10411875;28;20437;-55
2022/04/06 21:55:23;;;;;;;3.33;1.35;;;17.20;61.60;;;;;;10384189;28;20036;-55
2022/04/06 22:00:29;;;;;;;4.90;1.65;;;17.20;61.70;;;;;;10372732;28;20034;-56
2022/04/06 22:05:30;;;;;;;2.08;0.80;;;17.10;61.80;;;;;;10376623;28;20076;-56
2022/04/06 22:10:31;;;;;;;1.60;0.80;;;17.20;61.60;;;;;;10370863;28;20093;-56
2022/04/06 22:15:32;;;;;;;1.95;1.05;;;17.20;61.50;;;;;;10385901;28;20072;-55
2022/04/06 22:20:33;;;;;;;2.45;0.80;;;17.10;61.50;;;;;;10381745;28;20524;-55
2022/04/06 22:25:35;;;;;;;2.85;0.90;;;17.20;61.30;;;;;;10411535;28;20140;-55
2022/04/06 22:30:36;;;;;;;1.10;0.60;;;17.20;61.20;;;;;;10352601;28;20401;-55
2022/04/06 22:35:37;;;;;;;2.65;1.20;;;17.20;61.20;;;;;;10395837;28;20122;-54
2022/04/06 22:40:38;;;;;;;2.40;1.00;;;17.20;61.40;;;;;;10367627;28;20524;-55
2022/04/06 22:45:39;;;;;;;1.48;0.60;;;17.20;61.10;;;;;;10382067;28;20038;-56
2022/04/06 22:50:39;;;;;;;1.85;0.77;;;17.20;61.00;;;;;;10371207;28;20359;-55
2022/04/06 22:55:40;;;;;;;1.00;0.60;;;17.20;61.30;;;;;;10371533;28;20029;-55
2022/04/06 23:00:41;;;;;;;0.70;0.70;;;17.20;61.10;;;;;;10366816;28;20478;-54
2022/04/06 23:05:41;;;;;;;1.23;0.85;;;17.20;60.90;;;;;;10371348;28;20058;-53
2022/04/06 23:10:42;;;;;;;1.00;0.52;;;17.20;61.00;;;;;;10370695;28;20034;-55
2022/04/06 23:15:43;;;;;;;0.95;0.70;;;17.10;61.10;;;;;;10386238;28;20026;-56
2022/04/06 23:20:44;;;;;;;1.08;0.60;;;17.20;60.80;;;;;;10415758;28;20076;-54
2022/04/06 23:25:44;;;;;;;1.10;0.63;;;17.20;60.80;;;;;;10363012;28;20101;-56
2022/04/06 23:30:46;;;;;;;0.85;0.50;;;17.20;60.90;;;;;;10389684;28;20075;-55
2022/04/06 23:35:46;;;;;;;0.70;0.50;;;17.20;60.90;;;;;;10405141;28;20508;-55
2022/04/06 23:40:47;;;;;;;0.70;0.60;;;17.30;60.70;;;;;;10387242;28;20064;-56
2022/04/06 23:45:48;;;;;;;0.75;0.50;;;17.20;60.70;;;;;;10416665;28;20430;-55
2022/04/06 23:50:50;;;;;;;1.27;0.57;;;17.20;60.90;;;;;;10417889;28;20029;-55
2022/04/06 23:55:51;;;;;;;1.20;0.68;;;17.30;60.70;;;;;;10416246;28;20029;-55
